sim
Sign-in with your pilot id or email,
or register
Callsign
Passwort

Schedule Details

Flight Number: OEC87764
Departure: Berlin Tegel Airport (EDDT) at 08:00 UTC
Arrival: Fuerteventura Airport (GCFV) at 12:05 UTC

Weather Information
Getting current METAR information for EDDT 172220Z 22007KT CAVOK 21/13 Q1009
Getting current METAR information for GCFV 172200Z 03007KT CAVOK 24/20 Q1013

Schedule Frequency

Route Map